createdAt,value
2022-11-04T00:03:23.424Z,79.03
2022-11-04T00:08:27.198Z,79.32
2022-11-04T00:13:33.191Z,79.28
2022-11-04T00:18:36.881Z,79.78
2022-11-04T00:24:00.683Z,80.32
2022-11-04T00:29:04.175Z,80.69
2022-11-04T00:34:07.635Z,80.87
2022-11-04T00:39:10.945Z,81.49
2022-11-04T00:44:14.323Z,81.62
2022-11-04T00:49:18.126Z,82.27
2022-11-04T00:54:21.901Z,82.29
2022-11-04T00:59:27.109Z,82.35
2022-11-04T01:04:31.352Z,82.23
2022-11-04T01:09:36.180Z,82.43
2022-11-04T01:14:40.156Z,82.43
2022-11-04T01:19:43.740Z,82.03
2022-11-04T01:24:47.717Z,82.58
2022-11-04T01:29:51.084Z,82.31
2022-11-04T01:34:54.515Z,81.27
2022-11-04T01:39:57.894Z,81.48
2022-11-04T01:45:01.613Z,81.78
2022-11-04T01:50:21.609Z,81.63
2022-11-04T01:55:28.521Z,81.55
2022-11-04T02:00:33.589Z,81.73
2022-11-04T02:05:37.474Z,81.69
2022-11-04T02:10:42.231Z,81.48
2022-11-04T02:15:51.785Z,82.22
2022-11-04T02:21:33.906Z,81.76
2022-11-04T02:26:49.345Z,81.88
2022-11-04T02:32:08.078Z,82.35
2022-11-04T02:37:14.533Z,82.38
2022-11-04T02:42:55.488Z,82.88
2022-11-04T02:48:05.850Z,82.61
2022-11-04T02:53:21.950Z,81.88
2022-11-04T02:58:36.269Z,82.20
2022-11-04T03:03:44.723Z,82.70
2022-11-04T03:08:49.978Z,83.03
2022-11-04T03:13:57.939Z,83.48
2022-11-04T03:19:17.775Z,84.19
2022-11-04T03:24:21.442Z,84.34
2022-11-04T03:29:38.636Z,84.73
2022-11-04T03:34:42.004Z,84.72
2022-11-04T03:39:45.706Z,84.97
2022-11-04T03:44:54.733Z,84.92
2022-11-04T03:50:20.182Z,85.02
2022-11-04T03:55:46.593Z,84.83
2022-11-04T04:00:55.916Z,84.75
2022-11-04T04:06:17.078Z,84.69
2022-11-04T04:11:33.313Z,84.94
2022-11-04T04:16:41.452Z,85.25
2022-11-04T04:22:16.253Z,84.96
2022-11-04T04:27:33.529Z,84.90
2022-11-04T04:32:40.538Z,85.15
2022-11-04T04:37:45.215Z,85.47
2022-11-04T04:43:08.249Z,85.79
2022-11-04T04:48:13.971Z,85.69
2022-11-04T04:53:20.496Z,85.01
2022-11-04T04:58:23.889Z,85.38
2022-11-04T05:03:27.236Z,85.20
2022-11-04T05:08:30.635Z,84.46
2022-11-04T05:13:34.230Z,84.93
2022-11-04T05:18:38.149Z,85.78
2022-11-04T05:23:41.671Z,86.12
2022-11-04T05:28:45.007Z,86.84
2022-11-04T05:33:50.673Z,86.80
2022-11-04T05:38:55.955Z,86.92
2022-11-04T05:44:04.816Z,86.90
2022-11-04T05:49:10.010Z,86.80
2022-11-04T05:54:14.951Z,87.19
2022-11-04T05:59:22.694Z,87.49
2022-11-04T06:04:29.207Z,87.91
2022-11-04T06:09:42.134Z,87.86
2022-11-04T06:14:45.624Z,87.92
2022-11-04T06:19:49.875Z,87.91
2022-11-04T06:24:53.333Z,87.87
2022-11-04T06:29:58.026Z,88.04
2022-11-04T06:35:02.661Z,88.26
2022-11-04T06:40:14.044Z,88.18
2022-11-04T06:45:21.345Z,88.20
2022-11-04T06:50:29.444Z,88.12
2022-11-04T06:55:33.898Z,87.94
2022-11-04T07:00:37.602Z,86.85
2022-11-04T07:05:40.991Z,86.78
2022-11-04T07:10:44.459Z,86.17
2022-11-04T07:15:47.834Z,85.45
2022-11-04T07:20:53.381Z,84.84
2022-11-04T07:26:04.980Z,83.69
2022-11-04T07:31:10.688Z,83.11
2022-11-04T07:36:14.939Z,82.71
2022-11-04T07:41:21.884Z,83.06
2022-11-04T07:46:25.237Z,82.69
2022-11-04T07:51:28.667Z,82.72
2022-11-04T07:56:32.196Z,82.54
2022-11-04T08:01:35.726Z,82.42
2022-11-04T08:06:39.212Z,82.16
2022-11-04T08:11:42.652Z,81.58
2022-11-04T08:16:46.415Z,80.57
2022-11-04T08:21:50.290Z,79.82
2022-11-04T08:26:53.716Z,79.63
2022-11-04T08:31:57.410Z,78.91
2022-11-04T08:37:00.878Z,78.99
2022-11-04T08:42:05.006Z,80.09
2022-11-04T08:47:08.839Z,79.35
2022-11-04T08:52:12.261Z,78.67
2022-11-04T08:57:15.682Z,79.92
2022-11-04T09:02:19.039Z,78.25
2022-11-04T09:07:23.444Z,79.38
2022-11-04T09:12:26.813Z,76.16
2022-11-04T09:17:30.276Z,75.17
2022-11-04T09:22:33.572Z,76.98
2022-11-04T09:27:37.131Z,77.43
2022-11-04T09:32:40.489Z,77.57
2022-11-04T09:37:44.981Z,76.54
2022-11-04T09:43:00.778Z,76.79
2022-11-04T09:48:10.492Z,73.74
2022-11-04T09:53:47.873Z,75.86
2022-11-04T09:59:02.151Z,73.33
2022-11-04T10:05:03.621Z,73.94
2022-11-04T10:10:28.282Z,72.55
2022-11-04T10:16:02.358Z,70.49
2022-11-04T10:21:45.189Z,72.15
2022-11-04T10:27:00.451Z,71.74
2022-11-04T10:32:21.057Z,72.40
2022-11-04T10:37:26.756Z,71.33
2022-11-04T10:42:33.656Z,70.72
2022-11-04T10:47:50.232Z,70.50
2022-11-04T10:53:12.564Z,70.88
2022-11-04T10:58:23.347Z,70.84
2022-11-04T11:03:32.542Z,71.18
2022-11-04T11:08:37.720Z,71.23
2022-11-04T11:13:45.149Z,71.94
2022-11-04T11:19:25.374Z,72.18
2022-11-04T11:24:31.304Z,72.52
2022-11-04T11:29:42.555Z,72.80
2022-11-04T11:34:49.254Z,71.92
2022-11-04T11:39:52.644Z,70.73
2022-11-04T11:44:57.631Z,70.94
2022-11-04T11:50:14.515Z,70.51
2022-11-04T11:55:25.351Z,70.34
2022-11-04T12:11:20.350Z,72.31
2022-11-04T12:16:29.620Z,72.80
2022-11-04T12:21:36.695Z,73.32
2022-11-04T12:27:14.432Z,73.61
2022-11-04T12:32:34.297Z,73.87
2022-11-04T12:37:52.599Z,74.10
2022-11-04T12:43:14.171Z,74.34
2022-11-04T12:48:56.849Z,74.60
2022-11-04T12:54:16.604Z,75.49
2022-11-04T12:59:41.816Z,76.28
2022-11-04T13:05:01.451Z,76.87
2022-11-04T13:10:20.585Z,77.19
2022-11-04T13:16:10.185Z,77.29
2022-11-04T13:22:00.400Z,77.41
2022-11-04T13:27:34.232Z,77.34
2022-11-04T13:33:02.793Z,77.31
2022-11-04T13:38:27.372Z,77.61
2022-11-04T13:43:39.792Z,77.58
2022-11-04T13:48:52.204Z,77.37
2022-11-04T13:54:04.403Z,77.53
2022-11-04T13:59:30.752Z,77.54
2022-11-04T14:04:39.462Z,77.58
2022-11-04T14:09:49.248Z,77.73
2022-11-04T14:15:12.674Z,77.87
2022-11-04T14:20:26.272Z,77.93
2022-11-04T14:25:44.421Z,78.26
2022-11-04T14:31:01.226Z,78.37
2022-11-04T14:36:18.169Z,78.51
2022-11-04T14:41:45.432Z,78.57
2022-11-04T14:46:57.538Z,78.72
2022-11-04T14:52:02.949Z,78.94
2022-11-04T14:57:15.075Z,79.25
2022-11-04T15:02:41.730Z,79.31
2022-11-04T15:07:47.585Z,79.22
2022-11-04T15:13:00.759Z,79.37
2022-11-04T15:18:31.281Z,79.27
2022-11-04T15:24:02.318Z,79.42
2022-11-04T15:29:14.729Z,79.68
2022-11-04T15:34:24.107Z,79.86
2022-11-04T15:39:31.487Z,79.98
2022-11-04T15:44:45.383Z,80.16
2022-11-04T15:49:59.716Z,80.60
2022-11-04T15:55:08.681Z,81.67
2022-11-04T16:00:18.338Z,82.29
2022-11-04T16:05:41.162Z,82.28
2022-11-04T16:11:20.501Z,82.25
2022-11-04T16:16:33.613Z,82.77
2022-11-04T16:21:56.820Z,83.71
2022-11-04T16:27:01.269Z,84.23
2022-11-04T16:32:51.798Z,84.49
2022-11-04T16:38:12.233Z,84.46
2022-11-04T16:43:33.190Z,84.36
2022-11-04T16:48:43.182Z,84.69
2022-11-04T16:54:04.121Z,84.66
2022-11-04T16:59:18.666Z,84.80
2022-11-04T17:04:24.901Z,84.94
2022-11-04T17:09:29.065Z,85.20
2022-11-04T17:14:51.257Z,85.64
2022-11-04T17:20:14.256Z,85.89
2022-11-04T17:25:25.637Z,85.54
2022-11-04T17:30:29.518Z,86.79
2022-11-04T17:35:44.600Z,87.28
2022-11-04T17:41:10.139Z,87.64
2022-11-04T17:46:35.254Z,87.35
2022-11-04T17:51:50.153Z,87.86
2022-11-04T17:57:03.717Z,88.28
2022-11-04T18:02:09.123Z,87.07
2022-11-04T18:07:25.781Z,87.92
2022-11-04T18:12:39.922Z,88.63
2022-11-04T18:17:46.569Z,89.24
2022-11-04T18:23:05.622Z,89.08
2022-11-04T18:28:15.845Z,87.39
2022-11-04T18:33:25.370Z,88.78
2022-11-04T18:38:33.593Z,87.57
2022-11-04T18:43:39.584Z,88.55
2022-11-04T18:48:49.970Z,88.69
2022-11-04T18:54:04.653Z,89.21
2022-11-04T18:59:11.694Z,88.93
2022-11-04T19:04:16.861Z,89.23
2022-11-04T19:15:11.899Z,90.10
2022-11-04T19:20:17.315Z,90.77
2022-11-04T19:25:23.653Z,90.60
2022-11-04T19:30:34.612Z,90.18
2022-11-04T19:35:38.176Z,87.68
2022-11-04T19:40:50.934Z,87.50
2022-11-04T19:46:11.162Z,86.69
2022-11-04T19:51:17.939Z,87.99
2022-11-04T19:56:48.439Z,88.78
2022-11-04T20:02:02.884Z,88.58
2022-11-04T20:07:12.501Z,87.09
2022-11-04T20:12:36.505Z,86.28
2022-11-04T20:17:41.455Z,87.33
2022-11-04T20:22:44.922Z,87.91
2022-11-04T20:27:53.056Z,88.27
2022-11-04T20:33:03.719Z,88.98
2022-11-04T20:38:12.066Z,89.15
2022-11-04T20:43:20.054Z,90.32
2022-11-04T20:48:27.598Z,90.79
2022-11-04T20:53:35.080Z,91.36
2022-11-04T20:58:40.625Z,91.57
2022-11-04T21:03:52.870Z,91.69
2022-11-04T21:09:05.564Z,91.95
2022-11-04T21:14:23.799Z,91.90
2022-11-04T21:19:32.165Z,91.92
2022-11-04T21:24:39.335Z,92.21
2022-11-04T21:29:48.732Z,92.07
2022-11-04T21:34:55.482Z,90.82
2022-11-04T21:40:03.629Z,89.03
2022-11-04T21:45:21.875Z,89.29
2022-11-04T21:50:33.068Z,89.21
2022-11-04T21:55:42.754Z,87.85
2022-11-04T22:00:58.331Z,87.76
2022-11-04T22:06:23.033Z,88.01
2022-11-04T22:11:39.941Z,88.60
2022-11-04T22:16:43.602Z,89.52
2022-11-04T22:21:47.810Z,90.53
2022-11-04T22:26:51.473Z,90.73
2022-11-04T22:31:58.653Z,90.92
2022-11-04T22:37:18.911Z,91.15
2022-11-04T22:42:25.320Z,91.45
2022-11-04T22:47:30.325Z,91.70
2022-11-04T22:52:47.618Z,92.26
2022-11-04T22:57:54.502Z,92.44
2022-11-04T23:03:09.645Z,92.57
2022-11-04T23:08:40.449Z,92.76
2022-11-04T23:14:14.427Z,92.83
2022-11-04T23:19:37.915Z,92.86
2022-11-04T23:25:04.727Z,93.03
2022-11-04T23:30:26.524Z,93.18
2022-11-04T23:35:53.891Z,93.32
2022-11-04T23:41:26.563Z,93.46
2022-11-04T23:46:48.653Z,93.62
2022-11-04T23:52:12.969Z,93.66
2022-11-04T23:57:37.463Z,93.64
